createdAt,value
2022-09-15T00:01:12.127Z,96550.00
2022-09-15T00:03:40.297Z,96542.00
2022-09-15T00:06:08.737Z,96537.00
2022-09-15T00:08:35.727Z,96538.00
2022-09-15T00:11:17.380Z,96540.00
2022-09-15T00:13:45.239Z,96543.00
2022-09-15T00:16:15.142Z,96551.00
2022-09-15T00:18:46.408Z,96553.00
2022-09-15T00:21:22.215Z,96558.00
2022-09-15T00:23:50.347Z,96555.00
2022-09-15T00:26:21.417Z,96560.00
2022-09-15T00:28:49.218Z,96566.00
2022-09-15T00:31:20.402Z,96549.00
2022-09-15T00:33:50.317Z,96554.00
2022-09-15T00:36:18.759Z,96562.00
2022-09-15T00:38:45.963Z,96576.00
2022-09-15T00:41:16.962Z,96571.00
2022-09-15T00:43:55.906Z,96564.00
2022-09-15T00:46:29.014Z,96565.00
2022-09-15T00:49:18.133Z,96551.00
2022-09-15T00:52:23.759Z,96557.00
2022-09-15T00:55:01.962Z,96562.00
2022-09-15T00:57:55.169Z,96575.00
2022-09-15T01:00:26.454Z,96579.00
2022-09-15T01:02:54.942Z,96576.00
2022-09-15T01:05:27.311Z,96580.00
2022-09-15T01:08:04.292Z,96572.00
2022-09-15T01:10:39.837Z,96567.00
2022-09-15T01:13:13.158Z,96581.00
2022-09-15T01:16:15.564Z,96575.00
2022-09-15T01:19:12.122Z,96567.00
2022-09-15T01:22:21.760Z,96569.00
2022-09-15T01:25:15.373Z,96566.00
2022-09-15T01:28:10.979Z,96565.00
2022-09-15T01:30:43.312Z,96559.00
2022-09-15T01:33:20.702Z,96571.00
2022-09-15T01:36:18.193Z,96569.00
2022-09-15T01:39:12.701Z,96574.00
2022-09-15T01:41:49.402Z,96576.00
2022-09-15T01:44:29.292Z,96571.00
2022-09-15T01:47:08.446Z,96571.00
2022-09-15T01:49:46.871Z,96572.00
2022-09-15T01:52:19.203Z,96578.00
2022-09-15T01:54:52.225Z,96562.00
2022-09-15T01:57:22.315Z,96563.00
2022-09-15T01:59:56.386Z,96552.00
2022-09-15T02:02:34.189Z,96572.00
2022-09-15T02:05:20.120Z,96571.00
2022-09-15T02:08:05.853Z,96586.00
2022-09-15T02:10:41.045Z,96579.00
2022-09-15T02:13:52.117Z,96568.00
2022-09-15T02:16:25.642Z,96562.00
2022-09-15T02:19:11.068Z,96574.00
2022-09-15T02:21:53.205Z,96578.00
2022-09-15T02:24:30.585Z,96579.00
2022-09-15T02:27:01.054Z,96574.00
2022-09-15T02:29:33.535Z,96572.00
2022-09-15T02:32:07.086Z,96563.00
2022-09-15T02:34:44.219Z,96561.00
2022-09-15T02:37:13.214Z,96572.00
2022-09-15T02:39:58.038Z,96567.00
2022-09-15T02:42:27.830Z,96562.00
2022-09-15T02:44:55.951Z,96559.00
2022-09-15T02:47:23.789Z,96577.00
2022-09-15T02:49:51.180Z,96570.00
2022-09-15T02:52:18.111Z,96575.00
2022-09-15T02:54:45.062Z,96565.00
2022-09-15T02:57:13.822Z,96572.00
2022-09-15T02:59:59.803Z,96568.00
2022-09-15T03:02:27.354Z,96577.00
2022-09-15T03:04:54.214Z,96561.00
2022-09-15T03:07:21.601Z,96562.00
2022-09-15T03:09:48.396Z,96563.00
2022-09-15T03:12:16.014Z,96577.00
2022-09-15T03:14:43.314Z,96569.00
2022-09-15T03:17:10.232Z,96579.00
2022-09-15T03:19:37.188Z,96555.00
2022-09-15T03:22:04.068Z,96581.00
2022-09-15T03:24:30.858Z,96576.00
2022-09-15T03:26:57.724Z,96584.00
2022-09-15T03:29:24.688Z,96582.00
2022-09-15T03:31:51.730Z,96580.00
2022-09-15T03:34:18.662Z,96582.00
2022-09-15T03:36:45.542Z,96579.00
2022-09-15T03:39:13.003Z,96589.00
2022-09-15T03:41:39.946Z,96589.00
2022-09-15T03:44:06.931Z,96584.00
2022-09-15T03:46:33.791Z,96588.00
2022-09-15T03:49:00.633Z,96584.00
2022-09-15T03:51:28.845Z,96583.00
2022-09-15T03:53:56.349Z,96578.00
2022-09-15T03:56:30.150Z,96582.00
2022-09-15T03:58:58.465Z,96586.00
2022-09-15T04:01:25.783Z,96589.00
2022-09-15T04:03:52.689Z,96594.00
2022-09-15T04:06:21.637Z,96589.00
2022-09-15T04:08:52.599Z,96591.00
2022-09-15T04:11:22.133Z,96580.00
2022-09-15T04:13:49.109Z,96584.00
2022-09-15T04:16:20.433Z,96584.00
2022-09-15T04:18:47.378Z,96592.00
2022-09-15T04:21:18.295Z,96589.00
2022-09-15T04:23:46.115Z,96595.00
2022-09-15T04:26:23.949Z,96598.00
2022-09-15T04:28:50.847Z,96598.00
2022-09-15T04:31:19.041Z,96604.00
2022-09-15T04:33:46.982Z,96589.00
2022-09-15T04:36:21.124Z,96585.00
2022-09-15T04:38:48.575Z,96605.00
2022-09-15T04:41:16.047Z,96585.00
2022-09-15T04:43:43.831Z,96608.00
2022-09-15T04:46:12.557Z,96601.00
2022-09-15T04:48:39.703Z,96602.00
2022-09-15T04:51:15.498Z,96598.00
2022-09-15T04:53:45.489Z,96597.00
2022-09-15T04:56:16.332Z,96600.00
2022-09-15T04:58:49.613Z,96600.00
2022-09-15T05:01:26.655Z,96602.00
2022-09-15T05:03:54.670Z,96604.00
2022-09-15T05:06:27.778Z,96597.00
2022-09-15T05:08:57.654Z,96596.00
2022-09-15T05:11:25.962Z,96609.00
2022-09-15T05:13:53.381Z,96607.00
2022-09-15T05:16:27.227Z,96619.00
2022-09-15T05:18:57.792Z,96628.00
2022-09-15T05:21:25.884Z,96625.00
2022-09-15T05:23:53.924Z,96621.00
2022-09-15T05:26:28.091Z,96628.00
2022-09-15T05:28:57.236Z,96631.00
2022-09-15T05:31:28.660Z,96628.00
2022-09-15T05:33:55.583Z,96628.00
2022-09-15T05:36:25.846Z,96622.00
2022-09-15T05:38:56.455Z,96628.00
2022-09-15T05:41:25.501Z,96638.00
2022-09-15T05:43:56.801Z,96639.00
2022-09-15T05:46:27.727Z,96634.00
2022-09-15T05:48:57.759Z,96628.00
2022-09-15T05:51:25.686Z,96626.00
2022-09-15T05:53:52.772Z,96628.00
2022-09-15T05:56:20.110Z,96638.00
2022-09-15T05:58:48.722Z,96645.00
2022-09-15T06:01:25.333Z,96623.00
2022-09-15T06:03:53.512Z,96632.00
2022-09-15T06:06:24.465Z,96629.00
2022-09-15T06:08:59.089Z,96631.00
2022-09-15T06:11:31.028Z,96623.00
2022-09-15T06:14:03.590Z,96637.00
2022-09-15T06:16:34.523Z,96637.00
2022-09-15T06:19:01.674Z,96635.00
2022-09-15T06:21:31.535Z,96634.00
2022-09-15T06:24:06.995Z,96628.00
2022-09-15T06:26:34.603Z,96620.00
2022-09-15T06:29:03.863Z,96633.00
2022-09-15T06:31:33.516Z,96631.00
2022-09-15T06:34:01.336Z,96630.00
2022-09-15T06:36:30.795Z,96635.00
2022-09-15T06:38:58.561Z,96640.00
2022-09-15T06:41:26.284Z,96638.00
2022-09-15T06:43:53.658Z,96649.00
2022-09-15T06:46:25.089Z,96645.00
2022-09-15T06:48:53.397Z,96652.00
2022-09-15T06:51:24.062Z,96643.00
2022-09-15T06:53:53.057Z,96652.00
2022-09-15T06:56:22.931Z,96647.00
2022-09-15T06:58:50.882Z,96649.00
2022-09-15T07:01:30.342Z,96657.00
2022-09-15T07:04:00.967Z,96655.00
2022-09-15T07:06:30.361Z,96664.00
2022-09-15T07:08:58.520Z,96665.00
2022-09-15T07:11:26.215Z,96664.00
2022-09-15T07:13:53.299Z,96675.00
2022-09-15T07:16:22.441Z,96664.00
2022-09-15T07:18:49.824Z,96662.00
2022-09-15T07:21:20.197Z,96670.00
2022-09-15T07:23:48.269Z,96670.00
2022-09-15T07:26:22.361Z,96681.00
2022-09-15T07:28:58.788Z,96669.00
2022-09-15T07:31:30.039Z,96686.00
2022-09-15T07:33:59.103Z,96693.00
2022-09-15T07:36:26.128Z,96685.00
2022-09-15T07:38:53.137Z,96682.00
2022-09-15T07:41:29.332Z,96687.00
2022-09-15T07:43:59.448Z,96689.00
2022-09-15T07:46:31.127Z,96686.00
2022-09-15T07:48:58.165Z,96688.00
2022-09-15T07:51:26.054Z,96697.00
2022-09-15T07:53:53.984Z,96701.00
2022-09-15T07:56:22.354Z,96697.00
2022-09-15T07:58:50.881Z,96699.00
2022-09-15T08:01:20.130Z,96701.00
2022-09-15T08:03:51.813Z,96712.00
2022-09-15T08:06:22.627Z,96700.00
2022-09-15T08:08:52.288Z,96706.00
2022-09-15T08:11:22.019Z,96714.00
2022-09-15T08:13:51.059Z,96714.00
2022-09-15T08:16:21.880Z,96704.00
2022-09-15T08:18:51.852Z,96715.00
2022-09-15T08:21:20.976Z,96729.00
2022-09-15T08:24:00.019Z,96741.00
2022-09-15T08:26:29.311Z,96719.00
2022-09-15T08:28:57.809Z,96728.00
2022-09-15T08:31:25.258Z,96731.00
2022-09-15T08:33:55.779Z,96731.00
2022-09-15T08:36:24.451Z,96745.00
2022-09-15T08:38:51.285Z,96723.00
2022-09-15T08:41:33.379Z,96736.00
2022-09-15T08:44:44.625Z,96724.00
2022-09-15T08:47:35.793Z,96735.00
2022-09-15T08:50:10.159Z,96722.00
2022-09-15T08:52:57.924Z,96752.00
2022-09-15T08:55:37.300Z,96747.00
2022-09-15T08:58:05.929Z,96743.00
2022-09-15T09:00:33.766Z,96752.00
2022-09-15T09:03:03.446Z,96741.00
2022-09-15T09:05:54.040Z,96752.00
2022-09-15T09:08:32.606Z,96755.00
2022-09-15T09:11:23.377Z,96749.00
2022-09-15T09:14:14.247Z,96750.00
2022-09-15T09:17:26.123Z,96745.00
2022-09-15T09:20:32.223Z,96757.00
2022-09-15T09:23:05.442Z,96729.00
2022-09-15T09:25:32.383Z,96747.00
2022-09-15T09:28:02.007Z,96752.00
2022-09-15T09:30:34.817Z,96740.00
2022-09-15T09:33:46.814Z,96750.00
2022-09-15T09:36:15.328Z,96743.00
2022-09-15T09:38:46.858Z,96759.00
2022-09-15T09:41:25.917Z,96760.00
2022-09-15T09:43:56.061Z,96761.00
2022-09-15T09:46:22.967Z,96776.00
2022-09-15T09:49:20.376Z,96764.00
2022-09-15T09:52:01.613Z,96767.00
2022-09-15T09:54:31.115Z,96775.00
2022-09-15T09:57:28.093Z,96781.00
2022-09-15T09:59:55.542Z,96759.00
2022-09-15T10:02:29.255Z,96766.00
2022-09-15T10:05:20.700Z,96752.00
2022-09-15T10:07:48.691Z,96767.00
2022-09-15T10:10:25.891Z,96770.00
2022-09-15T10:12:56.545Z,96781.00
2022-09-15T10:15:34.713Z,96766.00
2022-09-15T10:18:01.937Z,96775.00
2022-09-15T10:20:49.418Z,96767.00
2022-09-15T10:23:21.547Z,96771.00
2022-09-15T10:25:59.125Z,96779.00
2022-09-15T10:28:28.217Z,96758.00
2022-09-15T10:31:10.981Z,96771.00
2022-09-15T10:33:44.829Z,96772.00
2022-09-15T10:36:23.547Z,96769.00
2022-09-15T10:39:24.978Z,96785.00
2022-09-15T10:42:25.023Z,96771.00
2022-09-15T10:45:22.354Z,96785.00
2022-09-15T10:48:11.298Z,96764.00
2022-09-15T10:51:26.686Z,96761.00
2022-09-15T10:54:27.121Z,96769.00
2022-09-15T10:57:22.307Z,96771.00
2022-09-15T11:00:05.260Z,96770.00
2022-09-15T11:03:15.798Z,96786.00
2022-09-15T11:06:06.817Z,96776.00
2022-09-15T11:09:23.188Z,96773.00
2022-09-15T11:12:08.879Z,96776.00
2022-09-15T11:15:07.214Z,96782.00
2022-09-15T11:18:49.259Z,96770.00
2022-09-15T11:21:29.660Z,96764.00
2022-09-15T11:24:35.194Z,96762.00
2022-09-15T11:27:37.187Z,96769.00
2022-09-15T11:30:31.266Z,96759.00
2022-09-15T11:33:27.871Z,96764.00
2022-09-15T11:36:09.476Z,96771.00
2022-09-15T11:39:04.136Z,96772.00
2022-09-15T11:42:20.418Z,96776.00
2022-09-15T11:44:48.564Z,96794.00
2022-09-15T11:47:42.506Z,96786.00
2022-09-15T11:50:24.203Z,96796.00
2022-09-15T11:53:13.235Z,96792.00
2022-09-15T11:55:51.721Z,96783.00
2022-09-15T11:58:53.966Z,96793.00
2022-09-15T12:01:29.805Z,96794.00
2022-09-15T12:04:20.450Z,96786.00
2022-09-15T12:07:13.831Z,96795.00
2022-09-15T12:09:41.807Z,96772.00
2022-09-15T12:12:20.279Z,96794.00
2022-09-15T12:14:51.472Z,96801.00
2022-09-15T12:17:48.513Z,96794.00
2022-09-15T12:20:27.295Z,96808.00
2022-09-15T12:23:13.650Z,96783.00
2022-09-15T12:26:20.118Z,96786.00
2022-09-15T12:28:46.900Z,96787.00
2022-09-15T12:31:23.371Z,96801.00
2022-09-15T12:34:06.821Z,96804.00
2022-09-15T12:36:41.442Z,96795.00
2022-09-15T12:39:27.408Z,96803.00
2022-09-15T12:46:02.252Z,96813.00
2022-09-15T12:48:36.447Z,96819.00
2022-09-15T12:51:10.515Z,96796.00
2022-09-15T12:53:47.392Z,96786.00
2022-09-15T12:56:31.140Z,96808.00
2022-09-15T12:59:06.826Z,96803.00
2022-09-15T13:01:50.685Z,96803.00
2022-09-15T13:04:43.594Z,96806.00
2022-09-15T13:07:17.182Z,96807.00
2022-09-15T13:10:13.089Z,96809.00
2022-09-15T13:12:54.500Z,96798.00
2022-09-15T13:15:25.792Z,96787.00
2022-09-15T13:17:54.557Z,96841.00
2022-09-15T13:20:31.986Z,96795.00
2022-09-15T13:23:03.651Z,96827.00
2022-09-15T13:25:31.304Z,96809.00
2022-09-15T13:28:03.841Z,96809.00
2022-09-15T13:30:59.628Z,96852.00
2022-09-15T13:40:51.087Z,96826.00
2022-09-15T13:43:55.169Z,96838.00
2022-09-15T13:47:04.107Z,96819.00
2022-09-15T13:50:11.972Z,96826.00
2022-09-15T13:53:20.548Z,96812.00
2022-09-15T13:55:48.413Z,96814.00
2022-09-15T14:01:14.345Z,96824.00
2022-09-15T14:04:20.141Z,96803.00
2022-09-15T14:07:03.697Z,96781.00
2022-09-15T14:09:44.616Z,96809.00
2022-09-15T14:12:15.330Z,96802.00
2022-09-15T14:14:50.779Z,96789.00
2022-09-15T14:17:28.616Z,96836.00
2022-09-15T14:20:00.545Z,96833.00
2022-09-15T14:22:32.313Z,96802.00
2022-09-15T14:25:07.045Z,96813.00
2022-09-15T14:27:42.948Z,96829.00
2022-09-15T14:30:29.300Z,96830.00
2022-09-15T14:33:04.107Z,96810.00
2022-09-15T14:35:37.436Z,96808.00
2022-09-15T14:38:05.014Z,96819.00
2022-09-15T14:40:39.460Z,96785.00
2022-09-15T14:43:39.386Z,96817.00
2022-09-15T14:46:18.495Z,96817.00
2022-09-15T14:48:45.695Z,96823.00
2022-09-15T14:51:28.498Z,96836.00
2022-09-15T14:54:01.103Z,96810.00
2022-09-15T14:56:34.414Z,96829.00
2022-09-15T14:59:08.855Z,96800.00
2022-09-15T15:01:45.805Z,96833.00
2022-09-15T15:05:05.961Z,96847.00
2022-09-15T15:07:38.794Z,96844.00
2022-09-15T15:10:23.624Z,96836.00
2022-09-15T15:12:56.122Z,96854.00
2022-09-15T15:15:23.582Z,96828.00
2022-09-15T15:17:54.620Z,96832.00
2022-09-15T15:20:27.945Z,96829.00
2022-09-15T15:23:20.437Z,96837.00
2022-09-15T15:25:47.699Z,96834.00
2022-09-15T15:28:36.873Z,96824.00
2022-09-15T15:31:25.808Z,96860.00
2022-09-15T15:33:59.201Z,96819.00
2022-09-15T15:36:30.095Z,96815.00
2022-09-15T15:39:04.862Z,96815.00
2022-09-15T15:41:41.993Z,96838.00
2022-09-15T15:44:14.971Z,96831.00
2022-09-15T15:47:13.816Z,96832.00
2022-09-15T15:50:02.214Z,96801.00
2022-09-15T15:52:27.698Z,96829.00
2022-09-15T15:54:54.647Z,96836.00
2022-09-15T15:57:26.181Z,96809.00
2022-09-15T15:59:59.084Z,96843.00
2022-09-15T16:02:27.592Z,96837.00
2022-09-15T16:04:54.926Z,96821.00
2022-09-15T16:07:24.331Z,96842.00
2022-09-15T16:09:51.638Z,96811.00
2022-09-15T16:12:47.513Z,96817.00
2022-09-15T16:15:21.293Z,96818.00
2022-09-15T16:17:49.850Z,96801.00
2022-09-15T16:20:19.635Z,96815.00
2022-09-15T16:22:46.749Z,96821.00
2022-09-15T16:25:34.918Z,96794.00
2022-09-15T16:28:03.611Z,96814.00
2022-09-15T16:30:31.855Z,96803.00
2022-09-15T16:32:59.221Z,96798.00
2022-09-15T16:35:55.132Z,96809.00
2022-09-15T16:38:25.796Z,96817.00
2022-09-15T16:40:53.025Z,96803.00
2022-09-15T16:43:22.641Z,96817.00
2022-09-15T16:45:51.267Z,96814.00
2022-09-15T16:48:19.096Z,96810.00
2022-09-15T16:51:09.541Z,96821.00
2022-09-15T16:53:35.101Z,96799.00
2022-09-15T16:56:02.509Z,96809.00
2022-09-15T16:58:29.470Z,96816.00
2022-09-15T17:00:56.974Z,96779.00
2022-09-15T17:03:26.920Z,96800.00
2022-09-15T17:05:59.643Z,96786.00
2022-09-15T17:08:32.998Z,96785.00
2022-09-15T17:11:04.627Z,96796.00
2022-09-15T17:13:34.838Z,96799.00
2022-09-15T17:16:04.143Z,96808.00
2022-09-15T17:18:31.803Z,96839.00
2022-09-15T17:20:59.379Z,96836.00
2022-09-15T17:23:31.334Z,96854.00
2022-09-15T17:26:01.730Z,96852.00
2022-09-15T17:28:32.511Z,96850.00
2022-09-15T17:31:04.887Z,96841.00
2022-09-15T17:33:33.012Z,96821.00
2022-09-15T17:36:00.713Z,96855.00
2022-09-15T17:38:27.940Z,96866.00
2022-09-15T17:40:55.442Z,96855.00
2022-09-15T17:43:26.612Z,96832.00
2022-09-15T17:45:54.686Z,96850.00
2022-09-15T17:48:22.510Z,96833.00
2022-09-15T17:50:50.821Z,96824.00
2022-09-15T17:53:22.508Z,96838.00
2022-09-15T17:55:51.098Z,96839.00
2022-09-15T17:58:18.667Z,96831.00
2022-09-15T18:00:47.811Z,96843.00
2022-09-15T18:03:36.647Z,96818.00
2022-09-15T18:06:08.153Z,96823.00
2022-09-15T18:08:36.440Z,96845.00
2022-09-15T18:11:05.552Z,96815.00
2022-09-15T18:13:33.451Z,96838.00
2022-09-15T18:16:06.930Z,96853.00
2022-09-15T18:18:34.240Z,96856.00
2022-09-15T18:21:01.691Z,96853.00
2022-09-15T18:23:29.560Z,96849.00
2022-09-15T18:25:57.598Z,96848.00
2022-09-15T18:28:24.609Z,96866.00
2022-09-15T18:30:52.093Z,96845.00
2022-09-15T18:33:24.838Z,96862.00
2022-09-15T18:35:55.561Z,96871.00
2022-09-15T18:38:23.576Z,96870.00
2022-09-15T18:40:55.847Z,96843.00
2022-09-15T18:43:26.247Z,96853.00
2022-09-15T18:46:00.790Z,96861.00
2022-09-15T18:48:29.213Z,96871.00
2022-09-15T18:50:56.597Z,96883.00
2022-09-15T18:53:24.567Z,96888.00
2022-09-15T18:55:51.610Z,96874.00
2022-09-15T18:58:19.411Z,96897.00
2022-09-15T19:00:46.571Z,96873.00
2022-09-15T19:03:14.360Z,96883.00
2022-09-15T19:05:41.951Z,96884.00
2022-09-15T19:08:10.947Z,96884.00
2022-09-15T19:10:41.551Z,96890.00
2022-09-15T19:13:11.213Z,96891.00
2022-09-15T19:15:43.861Z,96887.00
2022-09-15T19:18:13.440Z,96896.00
2022-09-15T19:20:40.464Z,96910.00
2022-09-15T19:23:07.960Z,96868.00
2022-09-15T19:25:35.470Z,96913.00
2022-09-15T19:28:02.752Z,96896.00
2022-09-15T19:30:29.747Z,96890.00
2022-09-15T19:32:56.877Z,96872.00
2022-09-15T19:35:23.821Z,96912.00
2022-09-15T19:37:50.763Z,96853.00
2022-09-15T19:40:17.891Z,96874.00
2022-09-15T19:42:45.601Z,96911.00
2022-09-15T19:45:13.767Z,96879.00
2022-09-15T19:47:41.546Z,96894.00
2022-09-15T19:50:12.016Z,96884.00
2022-09-15T19:52:39.448Z,96877.00
2022-09-15T19:55:09.482Z,96864.00
2022-09-15T19:57:42.186Z,96863.00
2022-09-15T20:00:12.562Z,96877.00
2022-09-15T20:02:39.794Z,96877.00
2022-09-15T20:05:07.998Z,96886.00
2022-09-15T20:07:35.789Z,96865.00
2022-09-15T20:10:03.713Z,96919.00
2022-09-15T20:12:31.213Z,96901.00
2022-09-15T20:14:58.260Z,96890.00
2022-09-15T20:17:28.537Z,96878.00
2022-09-15T20:19:55.673Z,96891.00
2022-09-15T20:22:22.942Z,96864.00
2022-09-15T20:24:51.027Z,96904.00
2022-09-15T20:27:18.048Z,96908.00
2022-09-15T20:29:45.228Z,96892.00
2022-09-15T20:32:12.360Z,96919.00
2022-09-15T20:34:39.499Z,96915.00
2022-09-15T20:37:07.070Z,96888.00
2022-09-15T20:39:33.987Z,96895.00
2022-09-15T20:42:00.871Z,96911.00
2022-09-15T20:44:27.806Z,96912.00
2022-09-15T20:46:54.839Z,96871.00
2022-09-15T20:49:21.927Z,96939.00
2022-09-15T20:51:51.474Z,96899.00
2022-09-15T20:54:18.514Z,96933.00
2022-09-15T20:56:45.483Z,96879.00
2022-09-15T20:59:13.802Z,96929.00
2022-09-15T21:01:40.924Z,96901.00
2022-09-15T21:04:10.001Z,96906.00
2022-09-15T21:06:37.639Z,96918.00
2022-09-15T21:09:05.737Z,96924.00
2022-09-15T21:11:33.379Z,96927.00
2022-09-15T21:14:01.126Z,96877.00
2022-09-15T21:16:29.717Z,96882.00
2022-09-15T21:18:58.694Z,96904.00
2022-09-15T21:21:32.604Z,96886.00
2022-09-15T21:24:08.585Z,96937.00
2022-09-15T21:27:00.142Z,96937.00
2022-09-15T21:29:28.886Z,96952.00
2022-09-15T21:31:56.212Z,96924.00
2022-09-15T21:34:23.960Z,96953.00
2022-09-15T21:36:52.397Z,96923.00
2022-09-15T21:39:19.393Z,96918.00
2022-09-15T21:41:46.541Z,96933.00
2022-09-15T21:44:13.773Z,96895.00
2022-09-15T21:46:40.711Z,96934.00
2022-09-15T21:49:08.272Z,96948.00
2022-09-15T21:51:35.370Z,96953.00
2022-09-15T21:54:02.315Z,96972.00
2022-09-15T21:56:30.126Z,96958.00
2022-09-15T21:58:57.520Z,96944.00
2022-09-15T22:01:30.354Z,96954.00
2022-09-15T22:04:07.102Z,96955.00
2022-09-15T22:06:37.156Z,96933.00
2022-09-15T22:09:13.736Z,96936.00
2022-09-15T22:11:41.426Z,96948.00
2022-09-15T22:14:08.949Z,96921.00
2022-09-15T22:16:39.064Z,96962.00
2022-09-15T22:19:09.596Z,96932.00
2022-09-15T22:21:41.503Z,96964.00
2022-09-15T22:24:12.692Z,96956.00
2022-09-15T22:26:42.490Z,96961.00
2022-09-15T22:29:10.258Z,96942.00
2022-09-15T22:31:37.638Z,96955.00
2022-09-15T22:34:05.332Z,96934.00
2022-09-15T22:36:32.812Z,96952.00
2022-09-15T22:39:05.259Z,96966.00
2022-09-15T22:41:39.909Z,96967.00
2022-09-15T22:44:16.585Z,96945.00
2022-09-15T22:46:43.538Z,96979.00
2022-09-15T22:49:10.448Z,96926.00
2022-09-15T22:51:37.530Z,96958.00
2022-09-15T22:54:05.223Z,96932.00
2022-09-15T22:56:32.228Z,96942.00
2022-09-15T22:58:59.314Z,96926.00
2022-09-15T23:01:30.574Z,96956.00
2022-09-15T23:04:01.416Z,96952.00
2022-09-15T23:06:32.808Z,96967.00
2022-09-15T23:09:05.284Z,96963.00
2022-09-15T23:11:34.401Z,96955.00
2022-09-15T23:14:02.040Z,96925.00
2022-09-15T23:16:31.359Z,96971.00
2022-09-15T23:18:58.971Z,96957.00
2022-09-15T23:21:26.357Z,96938.00
2022-09-15T23:23:54.943Z,96969.00
2022-09-15T23:26:24.150Z,96927.00
2022-09-15T23:28:53.150Z,96969.00
2022-09-15T23:31:21.791Z,96940.00
2022-09-15T23:33:49.486Z,96958.00
2022-09-15T23:36:21.920Z,96941.00
2022-09-15T23:38:49.841Z,96960.00
2022-09-15T23:41:18.216Z,96955.00
2022-09-15T23:43:46.053Z,96916.00
2022-09-15T23:46:13.805Z,96927.00
2022-09-15T23:48:41.266Z,96946.00
2022-09-15T23:51:08.960Z,96929.00
2022-09-15T23:53:36.340Z,96970.00
2022-09-15T23:56:04.046Z,96907.00
2022-09-15T23:58:31.212Z,96951.00
